N601JG LPMA-EGLC
Flight info
| Callsign | N601JG |
|---|---|
| Flight time | N/A |
| Altitude | 36000 |
| Route | DEGUN DCT ROLAR DCT VERAM DCT ASMAR DCT DEMOS/N0424F240 N728 KORUL/N0467F380 DCT JSY/N0395F190 G27 NEVIL |
| Aircraft | CL60/M-SBDE1E2E3FGHIJ1J4J5J7M3RWXYZ/LB1V1D1 |
Departure
| Time | N/A |
|---|---|
| Airport | Cristiano Ronaldo International Airport (LPMA) |
Arrival
| Time | 2026-04-30 20:20 |
|---|---|
| Airport | London City Airport (EGLC) |
| Time | Latitude | Longitude | Altitude | Speed | Heading |
|---|---|---|---|---|---|
| 2026-04-30 17:39 | 36.16958 | -14.04397 | 36072 ft | 504 kts | 19° |
| 2026-04-30 17:42 | 36.48358 | -13.85199 | 36077 ft | 503 kts | 20° |
| 2026-04-30 17:43 | 36.64055 | -13.75536 | 36076 ft | 502 kts | 20° |
| 2026-04-30 17:44 | 36.82646 | -13.63356 | 36080 ft | 506 kts | 27° |
| 2026-04-30 17:47 | 37.09508 | -13.42540 | 36082 ft | 504 kts | 27° |
| 2026-04-30 17:48 | 37.30396 | -13.26290 | 36083 ft | 504 kts | 27° |
| 2026-04-30 17:50 | 37.54154 | -13.07695 | 36081 ft | 500 kts | 27° |
| 2026-04-30 17:52 | 37.71939 | -12.93689 | 36080 ft | 500 kts | 27° |
| 2026-04-30 17:54 | 37.98414 | -12.72691 | 36076 ft | 499 kts | 27° |
| 2026-04-30 17:56 | 38.21907 | -12.53906 | 36078 ft | 498 kts | 27° |
| 2026-04-30 17:58 | 38.39493 | -12.39749 | 36078 ft | 498 kts | 27° |
| 2026-04-30 18:00 | 38.62841 | -12.20825 | 36079 ft | 497 kts | 28° |
| 2026-04-30 18:01 | 38.77426 | -12.08927 | 36076 ft | 496 kts | 28° |
| 2026-04-30 18:02 | 38.94859 | -11.94627 | 36441 ft | 491 kts | 27° |
| 2026-04-30 18:03 | 39.03546 | -11.87473 | 36082 ft | 496 kts | 27° |
| 2026-04-30 18:04 | 39.12295 | -11.80245 | 36096 ft | 499 kts | 27° |
| 2026-04-30 18:06 | 39.35695 | -11.60802 | 36097 ft | 500 kts | 27° |
| 2026-04-30 18:08 | 39.56062 | -11.43745 | 36099 ft | 498 kts | 27° |
| 2026-04-30 18:10 | 39.79389 | -11.24060 | 36096 ft | 500 kts | 29° |
| 2026-04-30 18:11 | 39.99768 | -11.06728 | 36092 ft | 500 kts | 28° |
| 2026-04-30 18:13 | 40.14345 | -10.94255 | 36092 ft | 503 kts | 29° |
| 2026-04-30 18:14 | 40.29079 | -10.81578 | 36093 ft | 509 kts | 31° |
| 2026-04-30 18:15 | 40.46871 | -10.66179 | 36094 ft | 512 kts | 31° |
| 2026-04-30 18:16 | 40.58758 | -10.55834 | 36095 ft | 512 kts | 32° |
| 2026-04-30 18:17 | 40.64760 | -10.50594 | 36091 ft | 511 kts | 33° |
| 2026-04-30 18:18 | 40.73673 | -10.42791 | 36096 ft | 510 kts | 33° |
| 2026-04-30 18:18 | 40.79609 | -10.37580 | 36086 ft | 510 kts | 33° |
| 2026-04-30 18:19 | 40.85551 | -10.32352 | 36093 ft | 509 kts | 34° |
| 2026-04-30 18:19 | 40.91454 | -10.27147 | 36090 ft | 509 kts | 34° |
| 2026-04-30 18:20 | 40.97367 | -10.21922 | 36092 ft | 509 kts | 34° |
| 2026-04-30 18:20 | 41.03241 | -10.16721 | 36093 ft | 508 kts | 34° |
| 2026-04-30 18:21 | 41.09098 | -10.11522 | 36090 ft | 508 kts | 34° |
| 2026-04-30 18:21 | 41.14980 | -10.06289 | 36093 ft | 508 kts | 34° |
| 2026-04-30 18:22 | 41.20887 | -10.01024 | 36097 ft | 508 kts | 34° |
| 2026-04-30 18:22 | 41.29688 | -9.93155 | 36094 ft | 507 kts | 34° |
| 2026-04-30 18:23 | 41.35542 | -9.87907 | 36100 ft | 507 kts | 34° |
| 2026-04-30 18:23 | 41.41379 | -9.82663 | 36103 ft | 507 kts | 34° |
| 2026-04-30 18:24 | 41.50146 | -9.74764 | 36099 ft | 507 kts | 34° |
| 2026-04-30 18:25 | 41.55990 | -9.69484 | 36098 ft | 508 kts | 34° |
| 2026-04-30 18:25 | 41.64781 | -9.61519 | 36099 ft | 508 kts | 34° |
| 2026-04-30 18:26 | 41.73540 | -9.53556 | 36099 ft | 508 kts | 34° |
| 2026-04-30 18:27 | 41.82319 | -9.45548 | 36103 ft | 507 kts | 35° |
| 2026-04-30 18:28 | 41.91082 | -9.37527 | 36102 ft | 508 kts | 35° |
| 2026-04-30 18:28 | 41.99880 | -9.29445 | 36108 ft | 508 kts | 36° |
| 2026-04-30 18:29 | 42.11550 | -9.18682 | 36108 ft | 508 kts | 36° |
| 2026-04-30 18:30 | 42.23204 | -9.07884 | 36112 ft | 508 kts | 36° |
| 2026-04-30 18:31 | 42.31985 | -8.99716 | 36116 ft | 507 kts | 36° |
| 2026-04-30 18:32 | 42.40723 | -8.91560 | 36110 ft | 508 kts | 36° |
| 2026-04-30 18:33 | 42.49420 | -8.83413 | 36114 ft | 508 kts | 36° |
| 2026-04-30 18:33 | 42.58156 | -8.75202 | 36115 ft | 507 kts | 36° |
| 2026-04-30 18:34 | 42.66848 | -8.67003 | 36115 ft | 507 kts | 36° |
| 2026-04-30 18:35 | 42.72687 | -8.61480 | 36110 ft | 507 kts | 36° |
| 2026-04-30 18:35 | 42.78495 | -8.55973 | 36121 ft | 507 kts | 36° |
| 2026-04-30 18:36 | 42.87169 | -8.47724 | 36115 ft | 507 kts | 36° |
| 2026-04-30 18:37 | 42.96059 | -8.39853 | 36120 ft | 508 kts | 29° |
| 2026-04-30 18:37 | 43.02287 | -8.35122 | 36119 ft | 508 kts | 29° |
| 2026-04-30 18:38 | 43.08462 | -8.30412 | 36117 ft | 509 kts | 30° |
| 2026-04-30 18:38 | 43.14678 | -8.25657 | 36113 ft | 508 kts | 30° |
| 2026-04-30 18:39 | 43.20846 | -8.20926 | 36109 ft | 508 kts | 30° |
| 2026-04-30 18:39 | 43.27031 | -8.16169 | 36113 ft | 508 kts | 30° |
| 2026-04-30 18:40 | 43.33197 | -8.11415 | 36110 ft | 508 kts | 30° |
| 2026-04-30 18:40 | 43.39381 | -8.06635 | 36109 ft | 508 kts | 30° |
| 2026-04-30 18:41 | 43.45518 | -8.01880 | 36106 ft | 507 kts | 30° |
| 2026-04-30 18:41 | 43.51672 | -7.97099 | 36106 ft | 508 kts | 30° |
| 2026-04-30 18:42 | 43.57850 | -7.92288 | 36104 ft | 508 kts | 30° |
| 2026-04-30 18:42 | 43.67066 | -7.85091 | 36109 ft | 508 kts | 30° |
| 2026-04-30 18:45 | 44.00844 | -7.58485 | 36113 ft | 507 kts | 29° |
| 2026-04-30 18:46 | 44.07005 | -7.53594 | 36112 ft | 507 kts | 29° |
| 2026-04-30 18:46 | 44.13132 | -7.48719 | 36113 ft | 507 kts | 29° |
| 2026-04-30 18:47 | 44.19318 | -7.43784 | 36112 ft | 506 kts | 29° |
| 2026-04-30 18:47 | 44.25431 | -7.38897 | 36113 ft | 506 kts | 29° |
| 2026-04-30 18:48 | 44.31582 | -7.33967 | 36113 ft | 506 kts | 30° |
| 2026-04-30 18:48 | 44.37679 | -7.29067 | 36112 ft | 506 kts | 30° |
| 2026-04-30 18:49 | 44.43827 | -7.24116 | 36114 ft | 506 kts | 30° |
| 2026-04-30 18:49 | 44.49985 | -7.19143 | 36115 ft | 506 kts | 30° |
| 2026-04-30 18:50 | 44.56103 | -7.14192 | 36113 ft | 506 kts | 30° |
| 2026-04-30 18:50 | 44.62206 | -7.09240 | 36113 ft | 506 kts | 30° |
| 2026-04-30 18:51 | 44.68291 | -7.04291 | 36113 ft | 505 kts | 30° |
| 2026-04-30 18:51 | 44.74368 | -6.99337 | 36114 ft | 505 kts | 30° |
| 2026-04-30 18:52 | 44.80465 | -6.94353 | 36154 ft | 503 kts | 30° |
| 2026-04-30 18:52 | 44.83481 | -6.91856 | 36310 ft | 502 kts | 31° |
| 2026-04-30 18:52 | 44.86389 | -6.89100 | 36467 ft | 503 kts | 35° |
| 2026-04-30 18:52 | 44.89232 | -6.86223 | 36654 ft | 504 kts | 35° |
| 2026-04-30 18:53 | 44.90900 | -6.84538 | 36785 ft | 504 kts | 35° |
| 2026-04-30 18:53 | 44.93759 | -6.81647 | 37019 ft | 504 kts | 35° |
| 2026-04-30 18:53 | 44.96593 | -6.78781 | 37266 ft | 503 kts | 35° |
| 2026-04-30 18:53 | 44.99458 | -6.75881 | 37512 ft | 503 kts | 35° |
| 2026-04-30 18:54 | 45.02286 | -6.73018 | 37724 ft | 502 kts | 35° |
| 2026-04-30 18:54 | 45.05137 | -6.70128 | 37949 ft | 502 kts | 35° |
| 2026-04-30 18:54 | 45.07975 | -6.67249 | 38132 ft | 502 kts | 35° |
| 2026-04-30 18:55 | 45.13708 | -6.61426 | 38115 ft | 505 kts | 35° |
| 2026-04-30 18:55 | 45.22246 | -6.52732 | 38115 ft | 502 kts | 35° |
| 2026-04-30 18:56 | 45.30736 | -6.44059 | 38113 ft | 501 kts | 34° |
| 2026-04-30 18:57 | 45.39206 | -6.35377 | 38113 ft | 500 kts | 34° |
| 2026-04-30 18:57 | 45.44839 | -6.29585 | 38113 ft | 500 kts | 35° |
| 2026-04-30 18:58 | 45.53283 | -6.20880 | 38113 ft | 500 kts | 35° |
| 2026-04-30 18:59 | 45.61604 | -6.12267 | 38111 ft | 499 kts | 35° |
| 2026-04-30 19:00 | 45.72823 | -6.00607 | 38114 ft | 498 kts | 35° |
| 2026-04-30 19:01 | 45.83995 | -5.88937 | 38114 ft | 498 kts | 35° |
| 2026-04-30 19:02 | 45.92401 | -5.80118 | 38113 ft | 498 kts | 35° |
| 2026-04-30 19:03 | 46.03542 | -5.68377 | 38115 ft | 497 kts | 35° |
| 2026-04-30 19:04 | 46.14675 | -5.56584 | 38112 ft | 495 kts | 35° |
| 2026-04-30 19:05 | 46.25776 | -5.44767 | 38104 ft | 495 kts | 35° |
| 2026-04-30 19:06 | 46.36830 | -5.32938 | 38104 ft | 494 kts | 36° |
| 2026-04-30 19:06 | 46.45111 | -5.24038 | 38105 ft | 494 kts | 36° |
| 2026-04-30 19:07 | 46.53389 | -5.15106 | 38100 ft | 493 kts | 36° |
| 2026-04-30 19:08 | 46.64339 | -5.03237 | 38101 ft | 492 kts | 36° |
| 2026-04-30 19:09 | 46.72574 | -4.94272 | 38099 ft | 493 kts | 36° |
| 2026-04-30 19:09 | 46.78064 | -4.88275 | 38097 ft | 492 kts | 36° |
| 2026-04-30 19:10 | 46.88998 | -4.76285 | 38097 ft | 490 kts | 36° |
| 2026-04-30 19:11 | 46.97147 | -4.67309 | 38093 ft | 489 kts | 36° |
| 2026-04-30 19:12 | 47.02568 | -4.61319 | 38092 ft | 489 kts | 36° |
| 2026-04-30 19:12 | 47.08024 | -4.55274 | 38093 ft | 489 kts | 36° |
| 2026-04-30 19:13 | 47.18850 | -4.43233 | 38092 ft | 488 kts | 36° |
| 2026-04-30 19:14 | 47.24276 | -4.37173 | 38095 ft | 488 kts | 36° |
| 2026-04-30 19:14 | 47.29704 | -4.31097 | 38093 ft | 487 kts | 37° |
| 2026-04-30 19:15 | 47.35079 | -4.25062 | 38093 ft | 486 kts | 37° |
| 2026-04-30 19:15 | 47.43111 | -4.16016 | 38093 ft | 485 kts | 37° |
| 2026-04-30 19:16 | 47.48506 | -4.09920 | 38094 ft | 485 kts | 37° |
| 2026-04-30 19:17 | 47.56550 | -4.00802 | 38094 ft | 485 kts | 37° |
| 2026-04-30 19:17 | 47.64590 | -3.91651 | 38091 ft | 484 kts | 37° |
| 2026-04-30 19:18 | 47.72576 | -3.82525 | 38093 ft | 483 kts | 37° |
| 2026-04-30 19:19 | 47.77900 | -3.76422 | 38101 ft | 482 kts | 37° |
| 2026-04-30 19:19 | 47.85867 | -3.67258 | 38097 ft | 482 kts | 37° |
| 2026-04-30 19:20 | 47.91139 | -3.61175 | 38096 ft | 481 kts | 37° |
| 2026-04-30 19:21 | 47.99093 | -3.51964 | 38093 ft | 481 kts | 37° |
| 2026-04-30 19:22 | 48.09674 | -3.39655 | 38097 ft | 481 kts | 37° |
| 2026-04-30 19:23 | 48.25404 | -3.21235 | 38088 ft | 479 kts | 38° |
| 2026-04-30 19:24 | 48.33278 | -3.11957 | 38086 ft | 480 kts | 38° |
| 2026-04-30 19:25 | 48.46394 | -2.96420 | 38092 ft | 480 kts | 38° |
| 2026-04-30 19:26 | 48.56892 | -2.83909 | 38092 ft | 480 kts | 39° |
| 2026-04-30 19:27 | 48.64740 | -2.74512 | 38086 ft | 481 kts | 39° |
| 2026-04-30 19:28 | 48.72615 | -2.65041 | 38087 ft | 480 kts | 39° |
| 2026-04-30 19:29 | 48.83067 | -2.52413 | 38077 ft | 480 kts | 39° |
| 2026-04-30 19:30 | 48.93502 | -2.39737 | 38075 ft | 479 kts | 39° |
| 2026-04-30 19:31 | 49.03918 | -2.27014 | 38071 ft | 479 kts | 40° |
| 2026-04-30 19:31 | 49.11688 | -2.17476 | 38071 ft | 479 kts | 40° |
| 2026-04-30 19:32 | 49.16878 | -2.11082 | 38076 ft | 479 kts | 40° |
| 2026-04-30 19:32 | 49.22008 | -2.04642 | 38083 ft | 478 kts | 44° |
| 2026-04-30 19:33 | 49.26543 | -1.97187 | 38079 ft | 477 kts | 49° |
| 2026-04-30 19:33 | 49.31012 | -1.89597 | 38080 ft | 477 kts | 49° |
| 2026-04-30 19:34 | 49.35458 | -1.82020 | 38080 ft | 477 kts | 49° |
| 2026-04-30 19:35 | 49.42077 | -1.70695 | 38088 ft | 476 kts | 50° |
| 2026-04-30 19:35 | 49.46502 | -1.63099 | 38090 ft | 476 kts | 50° |
| 2026-04-30 19:36 | 49.50915 | -1.55503 | 38093 ft | 475 kts | 50° |
| 2026-04-30 19:36 | 49.57615 | -1.44185 | 38102 ft | 475 kts | 48° |
| 2026-04-30 19:37 | 49.62134 | -1.36764 | 38098 ft | 475 kts | 48° |
| 2026-04-30 19:37 | 49.66688 | -1.29259 | 37962 ft | 476 kts | 49° |
| 2026-04-30 19:38 | 49.68926 | -1.25561 | 37702 ft | 477 kts | 49° |
| 2026-04-30 19:38 | 49.71192 | -1.21815 | 37458 ft | 475 kts | 49° |
| 2026-04-30 19:38 | 49.73460 | -1.18058 | 37208 ft | 474 kts | 49° |
| 2026-04-30 19:38 | 49.75695 | -1.14330 | 37098 ft | 471 kts | 50° |
| 2026-04-30 19:39 | 49.79418 | -1.06172 | 36875 ft | 450 kts | 63° |
| 2026-04-30 19:39 | 49.80716 | -1.01856 | 36314 ft | 445 kts | 70° |
| 2026-04-30 19:39 | 49.81741 | -0.97332 | 35629 ft | 446 kts | 73° |
| 2026-04-30 19:40 | 49.82724 | -0.92770 | 34858 ft | 449 kts | 73° |
| 2026-04-30 19:40 | 49.83716 | -0.88177 | 33899 ft | 450 kts | 73° |
| 2026-04-30 19:40 | 49.84698 | -0.83622 | 32655 ft | 449 kts | 73° |
| 2026-04-30 19:40 | 49.85681 | -0.79057 | 31220 ft | 451 kts | 73° |
| 2026-04-30 19:41 | 49.86668 | -0.74459 | 29687 ft | 452 kts | 73° |
| 2026-04-30 19:41 | 49.87644 | -0.69905 | 28451 ft | 445 kts | 73° |
| 2026-04-30 19:41 | 49.88618 | -0.65353 | 27551 ft | 438 kts | 73° |
| 2026-04-30 19:41 | 49.89568 | -0.60902 | 26691 ft | 434 kts | 74° |
| 2026-04-30 19:42 | 49.90509 | -0.56485 | 25839 ft | 431 kts | 74° |
| 2026-04-30 19:42 | 49.91439 | -0.52104 | 24998 ft | 427 kts | 75° |
| 2026-04-30 19:42 | 49.92567 | -0.47820 | 24154 ft | 427 kts | 65° |
| 2026-04-30 19:42 | 49.94293 | -0.44105 | 23555 ft | 425 kts | 51° |
| 2026-04-30 19:43 | 49.96479 | -0.41077 | 22957 ft | 422 kts | 42° |
| 2026-04-30 19:43 | 49.98783 | -0.38310 | 22398 ft | 413 kts | 41° |
| 2026-04-30 19:43 | 50.01056 | -0.35566 | 21848 ft | 411 kts | 41° |
| 2026-04-30 19:44 | 50.05534 | -0.30138 | 21222 ft | 407 kts | 42° |
| 2026-04-30 19:44 | 50.07784 | -0.27402 | 21013 ft | 410 kts | 42° |
| 2026-04-30 19:44 | 50.10057 | -0.24634 | 20645 ft | 408 kts | 42° |
| 2026-04-30 19:44 | 50.12285 | -0.21920 | 20325 ft | 405 kts | 42° |
| 2026-04-30 19:45 | 50.14443 | -0.19155 | 19995 ft | 400 kts | 48° |
| 2026-04-30 19:45 | 50.16152 | -0.15727 | 19670 ft | 408 kts | 61° |
| 2026-04-30 19:45 | 50.17684 | -0.11849 | 19319 ft | 424 kts | 62° |
| 2026-04-30 19:45 | 50.19251 | -0.07900 | 18982 ft | 428 kts | 61° |
| 2026-04-30 19:46 | 50.20822 | -0.03941 | 18638 ft | 425 kts | 61° |
| 2026-04-30 19:46 | 50.22377 | -0.00018 | 18294 ft | 423 kts | 61° |
| 2026-04-30 19:46 | 50.23900 | 0.03829 | 17967 ft | 420 kts | 61° |
| 2026-04-30 19:46 | 50.25448 | 0.07748 | 17630 ft | 419 kts | 61° |
| 2026-04-30 19:47 | 50.26971 | 0.11609 | 17299 ft | 417 kts | 61° |
| 2026-04-30 19:47 | 50.27989 | 0.14193 | 17083 ft | 415 kts | 61° |
| 2026-04-30 19:47 | 50.30013 | 0.19340 | 16630 ft | 413 kts | 61° |
| 2026-04-30 19:47 | 50.31496 | 0.23117 | 16301 ft | 411 kts | 61° |
| 2026-04-30 19:48 | 50.33002 | 0.26958 | 15975 ft | 409 kts | 61° |
| 2026-04-30 19:48 | 50.34492 | 0.30765 | 15645 ft | 407 kts | 61° |
| 2026-04-30 19:48 | 50.35955 | 0.34509 | 15327 ft | 405 kts | 61° |
| 2026-04-30 19:48 | 50.37445 | 0.38327 | 14995 ft | 403 kts | 61° |
| 2026-04-30 19:49 | 50.38889 | 0.42032 | 14685 ft | 401 kts | 61° |
| 2026-04-30 19:49 | 50.41814 | 0.49448 | 14048 ft | 398 kts | 60° |
| 2026-04-30 19:49 | 50.43310 | 0.53068 | 13863 ft | 394 kts | 59° |
| 2026-04-30 19:50 | 50.44805 | 0.56695 | 13849 ft | 393 kts | 59° |
| 2026-04-30 19:50 | 50.46286 | 0.60288 | 13820 ft | 395 kts | 59° |
| 2026-04-30 19:50 | 50.47774 | 0.63905 | 13695 ft | 397 kts | 59° |
| 2026-04-30 19:50 | 50.49282 | 0.67574 | 13583 ft | 394 kts | 60° |
| 2026-04-30 19:51 | 50.50763 | 0.71183 | 13467 ft | 393 kts | 60° |
| 2026-04-30 19:51 | 50.52240 | 0.74789 | 13367 ft | 392 kts | 60° |
| 2026-04-30 19:51 | 50.53701 | 0.78361 | 13253 ft | 392 kts | 60° |
| 2026-04-30 19:51 | 50.55185 | 0.81991 | 13154 ft | 391 kts | 60° |
| 2026-04-30 19:52 | 50.56663 | 0.85613 | 13041 ft | 391 kts | 60° |
| 2026-04-30 19:52 | 50.58138 | 0.89231 | 12923 ft | 390 kts | 60° |
| 2026-04-30 19:52 | 50.59724 | 0.92632 | 12833 ft | 393 kts | 50° |
| 2026-04-30 19:52 | 50.61858 | 0.95398 | 12709 ft | 397 kts | 38° |
| 2026-04-30 19:53 | 50.64146 | 0.97861 | 12597 ft | 396 kts | 37° |
| 2026-04-30 19:53 | 50.66406 | 1.00311 | 12486 ft | 395 kts | 38° |
| 2026-04-30 19:53 | 50.68670 | 1.02772 | 12372 ft | 394 kts | 37° |
| 2026-04-30 19:53 | 50.70951 | 1.05255 | 12260 ft | 393 kts | 37° |
| 2026-04-30 19:54 | 50.73201 | 1.07709 | 12151 ft | 393 kts | 38° |
| 2026-04-30 19:54 | 50.75468 | 1.10185 | 12041 ft | 392 kts | 37° |
| 2026-04-30 19:54 | 50.77712 | 1.12639 | 11933 ft | 390 kts | 37° |
| 2026-04-30 19:54 | 50.79919 | 1.15054 | 11827 ft | 382 kts | 37° |
| 2026-04-30 19:55 | 50.82078 | 1.17419 | 11726 ft | 370 kts | 38° |
| 2026-04-30 19:55 | 50.84209 | 1.19758 | 11623 ft | 371 kts | 38° |
| 2026-04-30 19:55 | 50.86393 | 1.22169 | 11512 ft | 392 kts | 38° |
| 2026-04-30 19:55 | 50.88644 | 1.24652 | 11399 ft | 392 kts | 37° |
| 2026-04-30 19:56 | 50.90819 | 1.27041 | 11297 ft | 364 kts | 38° |
| 2026-04-30 19:56 | 50.92827 | 1.29250 | 11207 ft | 341 kts | 38° |
| 2026-04-30 19:56 | 50.94777 | 1.31251 | 11118 ft | 323 kts | 30° |
| 2026-04-30 19:56 | 50.96842 | 1.32370 | 11030 ft | 311 kts | 13° |
| 2026-04-30 19:57 | 50.98981 | 1.32546 | 10932 ft | 304 kts | 358° |
| 2026-04-30 19:57 | 51.01080 | 1.32108 | 10831 ft | 306 kts | 353° |
| 2026-04-30 19:57 | 51.03203 | 1.31594 | 10755 ft | 306 kts | 354° |
| 2026-04-30 19:57 | 51.05310 | 1.31090 | 10668 ft | 303 kts | 354° |
| 2026-04-30 19:58 | 51.07422 | 1.30585 | 10583 ft | 303 kts | 354° |
| 2026-04-30 19:58 | 51.09477 | 1.30093 | 10505 ft | 291 kts | 354° |
| 2026-04-30 19:58 | 51.11446 | 1.29619 | 10425 ft | 278 kts | 354° |
| 2026-04-30 19:58 | 51.13331 | 1.29167 | 10347 ft | 267 kts | 354° |
| 2026-04-30 19:59 | 51.15142 | 1.28734 | 10271 ft | 260 kts | 354° |
| 2026-04-30 19:59 | 51.16932 | 1.28358 | 10219 ft | 258 kts | 358° |
| 2026-04-30 19:59 | 51.20510 | 1.27838 | 10213 ft | 258 kts | 358° |
| 2026-04-30 20:00 | 51.22324 | 1.27576 | 10211 ft | 259 kts | 358° |
| 2026-04-30 20:00 | 51.24117 | 1.27316 | 10210 ft | 259 kts | 358° |
| 2026-04-30 20:00 | 51.25913 | 1.27056 | 10211 ft | 259 kts | 358° |
| 2026-04-30 20:00 | 51.27702 | 1.26797 | 10210 ft | 259 kts | 358° |
| 2026-04-30 20:01 | 51.31309 | 1.26276 | 10214 ft | 258 kts | 358° |
| 2026-04-30 20:01 | 51.33072 | 1.25837 | 10212 ft | 261 kts | 344° |
| 2026-04-30 20:01 | 51.34681 | 1.24396 | 10047 ft | 268 kts | 317° |
| 2026-04-30 20:02 | 51.36785 | 1.19467 | 9411 ft | 267 kts | 301° |
| 2026-04-30 20:02 | 51.37759 | 1.16963 | 9136 ft | 264 kts | 301° |
| 2026-04-30 20:03 | 51.39686 | 1.12007 | 8554 ft | 260 kts | 301° |
| 2026-04-30 20:03 | 51.40651 | 1.09524 | 8140 ft | 264 kts | 301° |
| 2026-04-30 20:03 | 51.41640 | 1.06975 | 7715 ft | 266 kts | 301° |
| 2026-04-30 20:03 | 51.42604 | 1.04493 | 7480 ft | 261 kts | 301° |
| 2026-04-30 20:04 | 51.43553 | 1.02046 | 7176 ft | 259 kts | 301° |
| 2026-04-30 20:04 | 51.44510 | 0.99580 | 6890 ft | 256 kts | 301° |
| 2026-04-30 20:04 | 51.45448 | 0.97158 | 6603 ft | 253 kts | 301° |
| 2026-04-30 20:05 | 51.47240 | 0.92402 | 6064 ft | 246 kts | 291° |
| 2026-04-30 20:05 | 51.47570 | 0.89730 | 6008 ft | 241 kts | 270° |
| 2026-04-30 20:05 | 51.47760 | 0.84330 | 6005 ft | 243 kts | 270° |
| 2026-04-30 20:06 | 51.47863 | 0.81575 | 6008 ft | 243 kts | 270° |
| 2026-04-30 20:06 | 51.47951 | 0.79188 | 5907 ft | 246 kts | 270° |
| 2026-04-30 20:06 | 51.48052 | 0.76450 | 5741 ft | 243 kts | 270° |
| 2026-04-30 20:06 | 51.48152 | 0.73739 | 5595 ft | 242 kts | 270° |
| 2026-04-30 20:07 | 51.48251 | 0.71047 | 5431 ft | 242 kts | 270° |
| 2026-04-30 20:07 | 51.48348 | 0.68369 | 5270 ft | 241 kts | 270° |
| 2026-04-30 20:07 | 51.48542 | 0.63004 | 4951 ft | 240 kts | 270° |
| 2026-04-30 20:08 | 51.48636 | 0.60376 | 4800 ft | 239 kts | 270° |
| 2026-04-30 20:08 | 51.48732 | 0.57689 | 4641 ft | 239 kts | 270° |
| 2026-04-30 20:08 | 51.48826 | 0.55019 | 4479 ft | 239 kts | 269° |
| 2026-04-30 20:08 | 51.48920 | 0.52353 | 4321 ft | 238 kts | 270° |
| 2026-04-30 20:09 | 51.49012 | 0.49722 | 4163 ft | 238 kts | 270° |
| 2026-04-30 20:09 | 51.49013 | 0.47098 | 4000 ft | 233 kts | 254° |
| 2026-04-30 20:09 | 51.47595 | 0.42642 | 3741 ft | 225 kts | 233° |
| 2026-04-30 20:10 | 51.46008 | 0.38317 | 3485 ft | 225 kts | 234° |
| 2026-04-30 20:10 | 51.45218 | 0.36169 | 3343 ft | 224 kts | 233° |
| 2026-04-30 20:10 | 51.44425 | 0.34011 | 3220 ft | 224 kts | 233° |
| 2026-04-30 20:11 | 51.43103 | 0.29542 | 2992 ft | 229 kts | 260° |
| 2026-04-30 20:11 | 51.43129 | 0.26970 | 3007 ft | 232 kts | 269° |
| 2026-04-30 20:11 | 51.43216 | 0.24455 | 3006 ft | 224 kts | 269° |
| 2026-04-30 20:12 | 51.43370 | 0.19676 | 3012 ft | 210 kts | 268° |
| 2026-04-30 20:12 | 51.43442 | 0.17347 | 2885 ft | 214 kts | 268° |
| 2026-04-30 20:12 | 51.43515 | 0.15006 | 2710 ft | 210 kts | 268° |
| 2026-04-30 20:13 | 51.43589 | 0.12698 | 2567 ft | 207 kts | 269° |
| 2026-04-30 20:13 | 51.43660 | 0.10385 | 2378 ft | 208 kts | 269° |
| 2026-04-30 20:13 | 51.43733 | 0.08074 | 2218 ft | 207 kts | 269° |
| 2026-04-30 20:13 | 51.43803 | 0.05783 | 2050 ft | 207 kts | 269° |
| 2026-04-30 20:14 | 51.43874 | 0.03517 | 1991 ft | 203 kts | 269° |
| 2026-04-30 20:14 | 51.43944 | 0.01239 | 1992 ft | 205 kts | 270° |
| 2026-04-30 20:14 | 51.44015 | -0.01026 | 1991 ft | 205 kts | 269° |
| 2026-04-30 20:14 | 51.44083 | -0.03303 | 1995 ft | 206 kts | 269° |
| 2026-04-30 20:15 | 51.44153 | -0.05574 | 1991 ft | 206 kts | 269° |
| 2026-04-30 20:15 | 51.44295 | -0.07848 | 1990 ft | 208 kts | 283° |
| 2026-04-30 20:15 | 51.44997 | -0.09899 | 1989 ft | 210 kts | 316° |
| 2026-04-30 20:15 | 51.46188 | -0.11035 | 2005 ft | 202 kts | 347° |
| 2026-04-30 20:16 | 51.47498 | -0.11558 | 2018 ft | 185 kts | 351° |
| 2026-04-30 20:16 | 51.48726 | -0.11741 | 2001 ft | 167 kts | 19° |
| 2026-04-30 20:16 | 51.49623 | -0.10993 | 1982 ft | 134 kts | 53° |
| 2026-04-30 20:16 | 51.50236 | -0.09901 | 1999 ft | 131 kts | 59° |
| 2026-04-30 20:17 | 51.50800 | -0.08792 | 1996 ft | 124 kts | 68° |
| 2026-04-30 20:17 | 51.51068 | -0.07520 | 2016 ft | 115 kts | 101° |
| 2026-04-30 20:17 | 51.50952 | -0.06239 | 2021 ft | 119 kts | 104° |
| 2026-04-30 20:17 | 51.50840 | -0.04942 | 2029 ft | 119 kts | 101° |
| 2026-04-30 20:18 | 51.50782 | -0.03630 | 1883 ft | 117 kts | 98° |
| 2026-04-30 20:18 | 51.50747 | -0.02323 | 1602 ft | 118 kts | 97° |
| 2026-04-30 20:18 | 51.50719 | -0.00974 | 1312 ft | 123 kts | 96° |
| 2026-04-30 20:18 | 51.50676 | 0.00374 | 1005 ft | 121 kts | 95° |
| 2026-04-30 20:19 | 51.50629 | 0.01720 | 690 ft | 120 kts | 94° |
| 2026-04-30 20:19 | 51.50604 | 0.02618 | 488 ft | 122 kts | 94° |
| 2026-04-30 20:19 | 51.50555 | 0.04443 | 67 ft | 123 kts | 92° |
| 2026-04-30 20:19 | 51.50518 | 0.05636 | 21 ft | 70 kts | 93° |
| 2026-04-30 20:20 | 51.50504 | 0.06095 | 21 ft | 21 kts | 93° |
| 2026-04-30 20:20 | 51.50485 | 0.06308 | 21 ft | 10 kts | 132° |
| 2026-04-30 20:20 | 51.50419 | 0.06325 | 19 ft | 12 kts | 231° |
| 2026-04-30 20:20 | 51.50417 | 0.06171 | 20 ft | 18 kts | 273° |
| 2026-04-30 20:21 | 51.50423 | 0.05978 | 20 ft | 13 kts | 274° |
| 2026-04-30 20:21 | 51.50429 | 0.05784 | 21 ft | 21 kts | 272° |
| 2026-04-30 20:21 | 51.50437 | 0.05526 | 22 ft | 18 kts | 272° |
| 2026-04-30 20:21 | 51.50442 | 0.05334 | 24 ft | 17 kts | 272° |
| 2026-04-30 20:22 | 51.50451 | 0.05136 | 21 ft | 4 kts | 274° |
| 2026-04-30 20:22 | 51.50452 | 0.05092 | 21 ft | 10 kts | 274° |
| 2026-04-30 20:22 | 51.50463 | 0.04966 | 20 ft | 16 kts | 272° |
| 2026-04-30 20:22 | 51.50468 | 0.04785 | 18 ft | 12 kts | 271° |
| 2026-04-30 20:23 | 51.50474 | 0.04618 | 18 ft | 15 kts | 272° |
| 2026-04-30 20:23 | 51.50482 | 0.04474 | 18 ft | 13 kts | 283° |
| 2026-04-30 20:23 | 51.50499 | 0.04333 | 18 ft | 10 kts | 273° |
| 2026-04-30 20:23 | 51.50507 | 0.04220 | 18 ft | 4 kts | 292° |
| 2026-04-30 20:24 | 51.50516 | 0.04169 | 18 ft | 3 kts | 274° |
| 2026-04-30 20:24 | 51.50519 | 0.04113 | 18 ft | 4 kts | 272° |
| 2026-04-30 20:24 | 51.50519 | 0.04091 | 18 ft | 4 kts | 271° |
| 2026-04-30 20:24 | 51.50525 | 0.04040 | 18 ft | 6 kts | 255° |
| 2026-04-30 20:25 | 51.50509 | 0.04035 | 18 ft | 1 kts | 180° |
| 2026-04-30 20:25 | 51.50505 | 0.04040 | 18 ft | 0 kts | 111° |
| 2026-04-30 20:26 | 51.50504 | 0.04044 | 18 ft | 0 kts | 98° |
| 2026-04-30 20:26 | 51.50505 | 0.04031 | 18 ft | 0 kts | 98° |
| 2026-04-30 20:26 | 51.50505 | 0.04022 | 18 ft | 0 kts | 94° |